createdAt,value
2018-05-13T00:01:48.913Z,97606.64
2018-05-13T00:04:17.169Z,97605.63
2018-05-13T00:06:45.430Z,97604.58
2018-05-13T00:09:14.475Z,97599.80
2018-05-13T00:11:42.781Z,97603.61
2018-05-13T00:14:11.098Z,97604.22
2018-05-13T00:16:39.470Z,97602.29
2018-05-13T00:19:07.720Z,97604.17
2018-05-13T00:21:36.733Z,97595.95
2018-05-13T00:24:05.030Z,97596.31
2018-05-13T00:26:33.345Z,97596.75
2018-05-13T00:29:01.599Z,97596.97
2018-05-13T00:31:29.946Z,97597.70
2018-05-13T00:33:58.230Z,97593.14
2018-05-13T00:36:26.478Z,97590.26
2018-05-13T00:38:55.533Z,97595.87
2018-05-13T00:41:23.812Z,97592.17
2018-05-13T00:43:52.109Z,97588.68
2018-05-13T00:46:20.509Z,97585.63
2018-05-13T00:48:49.627Z,97585.72
2018-05-13T00:51:17.906Z,97578.93
2018-05-13T00:53:46.213Z,97578.01
2018-05-13T00:56:14.560Z,97575.73
2018-05-13T00:58:42.802Z,97580.41
2018-05-13T01:01:11.841Z,97576.23
2018-05-13T01:03:40.097Z,97572.68
2018-05-13T01:06:08.361Z,97578.61
2018-05-13T01:08:37.486Z,97571.80
2018-05-13T01:11:05.763Z,97572.63
2018-05-13T01:13:34.029Z,97569.39
2018-05-13T01:16:02.310Z,97579.63
2018-05-13T01:18:30.574Z,97578.60
2018-05-13T01:20:58.857Z,97580.37
2018-05-13T01:23:27.131Z,97578.31
2018-05-13T01:25:55.463Z,97581.00
2018-05-13T01:28:23.716Z,97577.77
2018-05-13T01:30:52.089Z,97586.64
2018-05-13T01:33:20.510Z,97581.61
2018-05-13T01:35:48.824Z,97582.73
2018-05-13T01:38:17.086Z,97580.39
2018-05-13T01:40:46.198Z,97578.69
2018-05-13T01:43:14.626Z,97573.81
2018-05-13T01:45:42.957Z,97574.61
2018-05-13T01:48:11.269Z,97570.13
2018-05-13T01:50:39.603Z,97564.02
2018-05-13T01:53:07.879Z,97563.85
2018-05-13T01:55:36.128Z,97560.38
2018-05-13T01:58:05.153Z,97563.91
2018-05-13T02:00:33.428Z,97564.43
2018-05-13T02:03:01.708Z,97560.72
2018-05-13T02:05:29.962Z,97557.59
2018-05-13T02:07:58.985Z,97556.96
2018-05-13T02:10:27.236Z,97553.96
2018-05-13T02:12:55.488Z,97556.47
2018-05-13T02:15:23.762Z,97557.78
2018-05-13T02:17:52.004Z,97557.47
2018-05-13T02:20:20.265Z,97558.36
2018-05-13T02:22:48.532Z,97556.94
2018-05-13T02:25:16.777Z,97562.55
2018-05-13T02:27:46.777Z,97564.34
2018-05-13T02:30:15.180Z,97560.06
2018-05-13T02:32:44.227Z,97559.21
2018-05-13T02:35:12.584Z,97564.20
2018-05-13T02:37:40.945Z,97553.95
2018-05-13T02:40:09.221Z,97550.56
2018-05-13T02:42:37.510Z,97550.59
2018-05-13T02:45:05.780Z,97546.37
2018-05-13T02:47:34.080Z,97533.51
2018-05-13T02:50:02.333Z,97531.27
2018-05-13T02:52:30.639Z,97529.47
2018-05-13T02:54:58.896Z,97532.92
2018-05-13T02:57:27.144Z,97523.27
2018-05-13T02:59:56.192Z,97530.43
2018-05-13T03:02:24.457Z,97532.13
2018-05-13T03:04:52.715Z,97527.63
2018-05-13T03:07:20.991Z,97526.53
2018-05-13T03:09:49.251Z,97525.91
2018-05-13T03:12:17.519Z,97522.91
2018-05-13T03:14:46.631Z,97523.77
2018-05-13T03:17:14.891Z,97529.78
2018-05-13T03:19:43.909Z,97527.17
2018-05-13T03:22:12.172Z,97521.53
2018-05-13T03:24:40.462Z,97517.67
2018-05-13T03:27:08.741Z,97524.97
2018-05-13T03:29:37.012Z,97525.37
2018-05-13T03:32:05.269Z,97527.98
2018-05-13T03:34:33.533Z,97521.47
2018-05-13T03:37:02.564Z,97529.37
2018-05-13T03:39:30.838Z,97527.17
2018-05-13T03:41:59.105Z,97532.88
2018-05-13T03:44:27.386Z,97530.97
2018-05-13T03:46:55.668Z,97551.66
2018-05-13T03:49:23.913Z,97551.13
2018-05-13T03:51:53.028Z,97545.80
2018-05-13T03:54:21.293Z,97536.72
2018-05-13T03:56:49.553Z,97535.78
2018-05-13T03:59:18.588Z,97537.62
2018-05-13T04:01:46.841Z,97542.46
2018-05-13T04:04:15.097Z,97547.00
2018-05-13T04:06:44.123Z,97551.67
2018-05-13T04:09:30.984Z,97549.37
2018-05-13T04:12:17.095Z,97557.52
2018-05-13T04:18:12.381Z,97551.78
2018-05-13T04:20:40.639Z,97540.47
2018-05-13T04:23:08.929Z,97543.92
2018-05-13T04:25:37.241Z,97551.22
2018-05-13T04:28:05.515Z,97538.79
2018-05-13T04:30:33.850Z,97543.62
2018-05-13T04:33:02.213Z,97537.68
2018-05-13T04:35:30.497Z,97538.17
2018-05-13T04:37:58.754Z,97534.58
2018-05-13T04:40:27.873Z,97531.57
2018-05-13T04:42:56.157Z,97531.13
2018-05-13T04:45:24.436Z,97526.69
2018-05-13T04:47:52.796Z,97529.98
2018-05-13T04:50:21.070Z,97543.63
2018-05-13T04:52:49.360Z,97538.14
2018-05-13T04:55:17.637Z,97542.13
2018-05-13T04:57:45.905Z,97541.70
2018-05-13T05:00:14.184Z,97544.82
2018-05-13T05:02:42.445Z,97548.05
2018-05-13T05:05:10.738Z,97544.23
2018-05-13T05:07:38.988Z,97541.52
2018-05-13T05:10:08.101Z,97539.13
2018-05-13T05:12:36.365Z,97541.02
2018-05-13T05:15:05.386Z,97532.48
2018-05-13T05:17:33.663Z,97528.56
2018-05-13T05:20:01.938Z,97520.56
2018-05-13T05:22:30.184Z,97517.48
2018-05-13T05:24:59.224Z,97519.29
2018-05-13T05:27:27.478Z,97514.48
2018-05-13T05:29:55.780Z,97520.45
2018-05-13T05:32:24.121Z,97517.35
2018-05-13T05:34:52.413Z,97513.95
2018-05-13T05:37:20.657Z,97522.80
2018-05-13T05:39:49.718Z,97528.63
2018-05-13T05:42:17.970Z,97536.52
2018-05-13T05:44:46.213Z,97538.93
2018-05-13T05:47:14.496Z,97547.17
2018-05-13T05:49:42.765Z,97549.33
2018-05-13T05:52:11.870Z,97551.57
2018-05-13T05:54:40.136Z,97543.33
2018-05-13T05:57:09.149Z,97542.59
2018-05-13T05:59:37.421Z,97535.33
2018-05-13T06:02:05.690Z,97532.44
2018-05-13T06:04:33.941Z,97529.03
2018-05-13T06:07:03.060Z,97525.77
2018-05-13T06:09:31.329Z,97516.80
2018-05-13T06:12:00.437Z,97500.99
2018-05-13T06:14:28.690Z,97495.16
2018-05-13T06:16:57.804Z,97487.67
2018-05-13T06:19:26.057Z,97478.14
2018-05-13T06:21:55.233Z,97483.31
2018-05-13T06:24:23.460Z,97491.91
2018-05-13T06:26:51.732Z,97497.41
2018-05-13T06:29:19.997Z,97499.97
2018-05-13T06:31:49.044Z,97491.59
2018-05-13T06:34:17.304Z,97491.05
2018-05-13T06:36:45.571Z,97485.30
2018-05-13T06:39:13.841Z,97482.19
2018-05-13T06:41:42.096Z,97483.43
2018-05-13T06:44:10.357Z,97476.78
2018-05-13T06:46:39.409Z,97486.75
2018-05-13T06:49:07.748Z,97493.31
2018-05-13T06:51:36.024Z,97495.58
2018-05-13T06:54:04.292Z,97498.32
2018-05-13T06:56:33.324Z,97497.97
2018-05-13T06:59:01.573Z,97495.36
2018-05-13T07:01:29.857Z,97497.51
2018-05-13T07:03:58.101Z,97498.97
2018-05-13T07:06:27.220Z,97500.33
2018-05-13T07:08:55.484Z,97503.19
2018-05-13T07:11:24.506Z,97504.24
2018-05-13T07:13:52.783Z,97500.75
2018-05-13T07:16:21.089Z,97494.42
2018-05-13T07:18:49.335Z,97496.77
2018-05-13T07:21:17.611Z,97495.20
2018-05-13T07:23:45.870Z,97489.34
2018-05-13T07:26:14.124Z,97497.19
2018-05-13T07:28:43.156Z,97494.05
2018-05-13T07:31:11.547Z,97500.57
2018-05-13T07:33:39.812Z,97499.48
2018-05-13T07:36:08.085Z,97498.44
2018-05-13T07:38:36.352Z,97498.19
2018-05-13T07:41:05.625Z,97492.45
2018-05-13T07:43:34.750Z,97483.27
2018-05-13T07:46:03.022Z,97477.03
2018-05-13T07:48:31.268Z,97474.00
2018-05-13T07:50:59.616Z,97475.41
2018-05-13T07:53:27.866Z,97473.88
2018-05-13T07:55:56.127Z,97471.03
2018-05-13T07:58:24.411Z,97467.19
2018-05-13T08:00:52.681Z,97464.57
2018-05-13T08:03:20.948Z,97464.13
2018-05-13T08:05:50.069Z,97463.81
2018-05-13T08:08:18.326Z,97458.96
2018-05-13T08:10:46.572Z,97458.16
2018-05-13T08:13:14.896Z,97454.94
2018-05-13T08:15:43.178Z,97454.89
2018-05-13T08:18:11.432Z,97456.56
2018-05-13T08:20:39.705Z,97448.23
2018-05-13T08:23:08.732Z,97449.25
2018-05-13T08:25:37.092Z,97442.59
2018-05-13T08:28:05.337Z,97444.91
2018-05-13T08:30:34.456Z,97448.05
2018-05-13T08:33:02.704Z,97439.11
2018-05-13T08:35:31.836Z,97437.68
2018-05-13T08:38:00.094Z,97440.04
2018-05-13T08:40:29.129Z,97436.06
2018-05-13T08:42:57.473Z,97441.45
2018-05-13T08:45:25.744Z,97439.34
2018-05-13T08:47:54.026Z,97436.34
2018-05-13T08:50:22.283Z,97435.03
2018-05-13T08:52:51.304Z,97431.16
2018-05-13T08:55:19.552Z,97430.11
2018-05-13T08:57:47.848Z,97428.80
2018-05-13T09:00:16.124Z,97428.36
2018-05-13T09:02:44.400Z,97425.31
2018-05-13T09:05:12.653Z,97430.92
2018-05-13T09:07:41.773Z,97423.03
2018-05-13T09:10:10.020Z,97414.77
2018-05-13T09:12:39.045Z,97414.50
2018-05-13T09:15:07.320Z,97410.34
2018-05-13T09:17:35.578Z,97410.89
2018-05-13T09:20:04.593Z,97398.83
2018-05-13T09:22:32.861Z,97395.23
2018-05-13T09:25:01.121Z,97394.97
2018-05-13T09:27:30.161Z,97393.49
2018-05-13T09:29:58.423Z,97390.77
2018-05-13T09:32:26.672Z,97379.96
2018-05-13T09:34:55.686Z,97380.48
2018-05-13T09:37:23.969Z,97378.89
2018-05-13T09:39:52.247Z,97378.83
2018-05-13T09:42:20.513Z,97372.99
2018-05-13T09:44:48.885Z,97370.06
2018-05-13T09:47:17.136Z,97373.25
2018-05-13T09:49:45.389Z,97375.39
2018-05-13T09:52:13.723Z,97372.01
2018-05-13T09:54:41.976Z,97371.20
2018-05-13T09:57:11.089Z,97375.10
2018-05-13T09:59:39.365Z,97371.11
2018-05-13T10:02:07.613Z,97367.20
2018-05-13T10:04:36.633Z,97363.29
2018-05-13T10:07:04.897Z,97359.83
2018-05-13T10:09:34.473Z,97356.11
2018-05-13T10:12:02.709Z,97353.16
2018-05-13T10:14:31.068Z,97356.00
2018-05-13T10:16:59.329Z,97352.69
2018-05-13T10:19:28.537Z,97350.64
2018-05-13T10:21:56.720Z,97353.84
2018-05-13T10:24:24.995Z,97350.23
2018-05-13T10:26:53.236Z,97346.33
2018-05-13T10:29:22.269Z,97344.95
2018-05-13T10:31:50.550Z,97352.06
2018-05-13T10:34:18.816Z,97344.23
2018-05-13T10:36:47.080Z,97336.94
2018-05-13T10:39:16.188Z,97331.80
2018-05-13T10:41:44.448Z,97336.25
2018-05-13T10:44:13.809Z,97328.75
2018-05-13T10:46:42.153Z,97327.58
2018-05-13T10:49:10.415Z,97326.47
2018-05-13T10:51:38.713Z,97327.50
2018-05-13T10:54:06.961Z,97318.05
2018-05-13T10:56:36.069Z,97321.20
2018-05-13T10:59:04.345Z,97322.55
2018-05-13T11:01:32.592Z,97318.95
2018-05-13T11:04:01.717Z,97324.55
2018-05-13T11:06:29.995Z,97320.20
2018-05-13T11:08:58.269Z,97319.70
2018-05-13T11:11:26.536Z,97318.95
2018-05-13T11:13:55.551Z,97312.97
2018-05-13T11:16:23.807Z,97323.48
2018-05-13T11:18:52.173Z,97318.56
2018-05-13T11:21:21.197Z,97317.73
2018-05-13T11:23:49.444Z,97317.81
2018-05-13T11:26:18.473Z,97311.98
2018-05-13T11:28:47.657Z,97306.44
2018-05-13T11:31:15.917Z,97307.19
2018-05-13T11:33:45.045Z,97315.39
2018-05-13T11:36:13.229Z,97308.96
2018-05-13T11:38:41.577Z,97316.48
2018-05-13T11:41:09.857Z,97314.60
2018-05-13T11:43:38.105Z,97313.62
2018-05-13T11:46:07.229Z,97312.51
2018-05-13T11:48:35.497Z,97301.61
2018-05-13T11:51:03.785Z,97297.87
2018-05-13T11:53:32.096Z,97295.22
2018-05-13T11:56:00.353Z,97288.71
2018-05-13T11:58:28.612Z,97275.98
2018-05-13T12:00:56.867Z,97280.80
2018-05-13T12:03:25.896Z,97273.73
2018-05-13T12:05:54.157Z,97272.62
2018-05-13T12:08:22.418Z,97272.81
2018-05-13T12:10:51.463Z,97276.45
2018-05-13T12:13:19.715Z,97288.23
2018-05-13T12:15:47.965Z,97290.66
2018-05-13T12:18:16.993Z,97281.39
2018-05-13T12:20:45.241Z,97287.28
2018-05-13T12:23:13.524Z,97298.55
2018-05-13T12:25:41.849Z,97284.46
2018-05-13T12:28:10.068Z,97290.53
2018-05-13T12:30:38.356Z,97287.48
2018-05-13T12:33:06.631Z,97297.00
2018-05-13T12:35:34.886Z,97305.71
2018-05-13T12:38:04.006Z,97319.32
2018-05-13T12:40:32.262Z,97338.30
2018-05-13T12:43:01.370Z,97361.66
2018-05-13T12:45:29.651Z,97331.92
2018-05-13T12:47:57.920Z,97310.70
2018-05-13T12:50:26.206Z,97296.73
2018-05-13T12:52:54.466Z,97345.05
2018-05-13T12:55:23.572Z,97407.28
2018-05-13T12:57:51.833Z,97460.00
2018-05-13T13:00:20.864Z,97517.80
2018-05-13T13:02:49.141Z,97515.80
2018-05-13T13:05:17.400Z,97500.11
2018-05-13T13:07:45.675Z,97483.64
2018-05-13T13:10:14.775Z,97462.08
2018-05-13T13:12:43.024Z,97431.47
2018-05-13T13:15:12.188Z,97424.48
2018-05-13T13:17:40.412Z,97399.32
2018-05-13T13:20:08.811Z,97396.14
2018-05-13T13:22:36.936Z,97418.52
2018-05-13T13:25:05.977Z,97415.48
2018-05-13T13:27:34.237Z,97399.77
2018-05-13T13:30:02.519Z,97384.30
2018-05-13T13:32:30.804Z,97392.80
2018-05-13T13:34:59.061Z,97380.29
2018-05-13T13:37:27.314Z,97368.42
2018-05-13T13:39:56.368Z,97362.59
2018-05-13T13:42:24.713Z,97363.77
2018-05-13T13:44:52.972Z,97367.80
2018-05-13T13:47:22.058Z,97365.56
2018-05-13T13:49:50.274Z,97353.34
2018-05-13T13:52:18.524Z,97349.35
2018-05-13T13:54:46.813Z,97346.22
2018-05-13T13:57:15.087Z,97361.84
2018-05-13T13:59:43.338Z,97357.91
2018-05-13T14:02:12.457Z,97343.33
2018-05-13T14:04:40.716Z,97349.02
2018-05-13T14:07:09.732Z,97368.34
2018-05-13T14:09:38.013Z,97366.30
2018-05-13T14:12:06.299Z,97363.05
2018-05-13T14:14:34.662Z,97359.59
2018-05-13T14:17:02.937Z,97368.08
2018-05-13T14:19:31.201Z,97378.45
2018-05-13T14:22:00.224Z,97385.10
2018-05-13T14:24:28.489Z,97386.44
2018-05-13T14:26:56.796Z,97380.33
2018-05-13T14:29:25.021Z,97378.77
2018-05-13T14:31:54.067Z,97378.20
2018-05-13T14:34:22.317Z,97376.42
2018-05-13T14:36:50.572Z,97381.08
2018-05-13T14:39:18.860Z,97372.52
2018-05-13T14:41:47.137Z,97366.06
2018-05-13T14:44:15.389Z,97368.28
2018-05-13T14:46:44.429Z,97365.26
2018-05-13T14:49:12.677Z,97375.99
2018-05-13T14:51:40.922Z,97379.23
2018-05-13T14:54:09.242Z,97377.56
2018-05-13T14:56:37.514Z,97366.34
2018-05-13T14:59:05.782Z,97353.67
2018-05-13T15:01:34.048Z,97355.32
2018-05-13T15:04:03.158Z,97341.45
2018-05-13T15:06:31.449Z,97344.45
2018-05-13T15:08:59.785Z,97353.41
2018-05-13T15:11:28.929Z,97356.25
2018-05-13T15:13:57.295Z,97366.58
2018-05-13T15:16:25.698Z,97372.71
2018-05-13T15:18:54.058Z,97388.95
2018-05-13T15:21:22.363Z,97396.28
2018-05-13T15:23:50.631Z,97416.86
2018-05-13T15:26:18.904Z,97426.02
2018-05-13T15:28:47.265Z,97420.66
2018-05-13T15:31:15.605Z,97422.90
2018-05-13T15:33:44.738Z,97424.05
2018-05-13T15:36:13.182Z,97426.56
2018-05-13T15:38:41.489Z,97440.06
2018-05-13T15:41:09.751Z,97452.48
2018-05-13T15:43:38.004Z,97471.75
2018-05-13T15:46:06.305Z,97494.13
2018-05-13T15:48:34.601Z,97482.99
2018-05-13T15:51:02.961Z,97458.72
2018-05-13T15:53:31.302Z,97425.91
2018-05-13T15:55:59.666Z,97402.30
2018-05-13T15:58:27.929Z,97408.67
2018-05-13T16:00:56.226Z,97428.47
2018-05-13T16:03:24.533Z,97439.23
2018-05-13T16:05:53.673Z,97442.13
2018-05-13T16:08:21.951Z,97436.49
2018-05-13T16:10:50.333Z,97441.70
2018-05-13T16:13:18.605Z,97431.87
2018-05-13T16:15:46.986Z,97426.95
2018-05-13T16:18:15.253Z,97417.98
2018-05-13T16:20:43.509Z,97410.82
2018-05-13T16:23:11.940Z,97403.90
2018-05-13T16:25:40.240Z,97408.50
2018-05-13T16:28:09.373Z,97412.56
2018-05-13T16:30:37.750Z,97434.80
2018-05-13T16:33:06.031Z,97440.98
2018-05-13T16:35:34.375Z,97446.01
2018-05-13T16:38:03.509Z,97446.11
2018-05-13T16:40:31.804Z,97433.44
2018-05-13T16:43:00.471Z,97445.73
2018-05-13T16:45:28.947Z,97452.41
2018-05-13T16:47:57.253Z,97433.73
2018-05-13T16:50:25.610Z,97434.75
2018-05-13T16:52:54.396Z,97427.55
2018-05-13T16:55:24.151Z,97438.55
2018-05-13T16:57:52.789Z,97408.67
2018-05-13T17:00:21.577Z,97377.05
2018-05-13T17:02:50.466Z,97378.80
2018-05-13T17:05:19.356Z,97390.91
2018-05-13T17:07:48.458Z,97394.08
2018-05-13T17:10:16.775Z,97383.92
2018-05-13T17:12:45.124Z,97378.86
2018-05-13T17:15:15.026Z,97379.37
2018-05-13T17:17:45.339Z,97372.19
2018-05-13T17:20:15.038Z,97369.41
2018-05-13T17:22:44.703Z,97367.39
2018-05-13T17:25:14.604Z,97363.55
2018-05-13T17:27:44.276Z,97366.80
2018-05-13T17:30:14.983Z,97365.99
2018-05-13T17:32:44.819Z,97361.10
2018-05-13T17:35:14.802Z,97363.71
2018-05-13T17:37:44.756Z,97364.20
2018-05-13T17:40:15.695Z,97364.64
2018-05-13T17:42:46.333Z,97367.59
2018-05-13T17:45:17.055Z,97375.94
2018-05-13T17:47:46.996Z,97373.28
2018-05-13T17:50:17.192Z,97368.76
2018-05-13T17:52:47.792Z,97373.04
2018-05-13T17:55:18.307Z,97376.48
2018-05-13T17:57:48.178Z,97373.30
2018-05-13T18:00:18.879Z,97374.65
2018-05-13T18:02:48.570Z,97372.85
2018-05-13T18:05:19.436Z,97369.48
2018-05-13T18:07:49.251Z,97372.77
2018-05-13T18:10:19.158Z,97366.69
2018-05-13T18:12:49.408Z,97362.48
2018-05-13T18:15:20.190Z,97363.19
2018-05-13T18:17:49.862Z,97363.78
2018-05-13T18:20:20.625Z,97366.67
2018-05-13T18:22:50.433Z,97377.38
2018-05-13T18:25:20.330Z,97385.95
2018-05-13T18:27:50.524Z,97378.64
2018-05-13T18:30:21.381Z,97370.80
2018-05-13T18:32:51.999Z,97385.13
2018-05-13T18:35:22.609Z,97404.48
2018-05-13T18:37:52.787Z,97401.10
2018-05-13T18:40:22.650Z,97389.28
2018-05-13T18:42:52.690Z,97382.62
2018-05-13T18:45:24.165Z,97386.42
2018-05-13T18:47:54.652Z,97389.39
2018-05-13T18:50:24.546Z,97378.82
2018-05-13T18:52:54.349Z,97374.47
2018-05-13T18:55:24.223Z,97377.55
2018-05-13T18:57:54.217Z,97389.88
2018-05-13T19:00:24.967Z,97390.65
2018-05-13T19:02:55.600Z,97402.81
2018-05-13T19:05:25.485Z,97401.92
2018-05-13T19:07:56.514Z,97410.59
2018-05-13T19:10:26.416Z,97428.98
2018-05-13T19:12:56.362Z,97448.39
2018-05-13T19:15:27.290Z,97460.16
2018-05-13T19:17:57.924Z,97462.91
2018-05-13T19:20:28.601Z,97460.55
2018-05-13T19:22:58.386Z,97458.62
2018-05-13T19:25:28.996Z,97457.48
2018-05-13T19:27:58.960Z,97469.22
2018-05-13T19:30:28.942Z,97481.13
2018-05-13T19:32:59.693Z,97490.34
2018-05-13T19:35:29.634Z,97497.61
2018-05-13T19:37:59.568Z,97501.34
2018-05-13T19:40:29.466Z,97503.84
2018-05-13T19:42:59.629Z,97503.68
2018-05-13T19:45:30.731Z,97507.98
2018-05-13T19:48:00.616Z,97508.53
2018-05-13T19:50:30.707Z,97517.30
2018-05-13T19:53:00.485Z,97521.36
2018-05-13T19:55:30.423Z,97524.16
2018-05-13T19:58:01.147Z,97531.52
2018-05-13T20:00:31.894Z,97531.31
2018-05-13T20:03:02.043Z,97530.73
2018-05-13T20:05:32.930Z,97536.80
2018-05-13T20:08:02.780Z,97535.69
2018-05-13T20:10:33.514Z,97535.83
2018-05-13T20:13:03.955Z,97534.92
2018-05-13T20:15:34.778Z,97536.72
2018-05-13T20:18:05.475Z,97536.91
2018-05-13T20:20:35.457Z,97534.80
2018-05-13T20:23:22.732Z,97540.00
2018-05-13T20:25:53.486Z,97521.83
2018-05-13T20:28:24.043Z,97525.80
2018-05-13T20:30:54.105Z,97520.17
2018-05-13T20:33:24.039Z,97524.16
2018-05-13T20:35:54.009Z,97528.63
2018-05-13T20:38:23.885Z,97527.08
2018-05-13T20:40:54.724Z,97522.02
2018-05-13T20:43:25.455Z,97515.02
2018-05-13T20:45:56.079Z,97518.28
2018-05-13T20:48:26.586Z,97514.75
2018-05-13T20:50:56.546Z,97519.13
2018-05-13T20:53:26.501Z,97512.28
2018-05-13T20:55:56.394Z,97511.87
2018-05-13T20:58:26.449Z,97518.30
2018-05-13T21:00:56.375Z,97515.41
2018-05-13T21:03:25.978Z,97514.30
2018-05-13T21:05:55.830Z,97518.42
2018-05-13T21:08:25.606Z,97523.33
2018-05-13T21:10:55.442Z,97519.25
2018-05-13T21:13:26.157Z,97517.81
2018-05-13T21:15:57.893Z,97509.47
2018-05-13T21:18:27.413Z,97517.08
2018-05-13T21:20:56.006Z,97519.89
2018-05-13T21:23:24.442Z,97511.45
2018-05-13T21:25:53.522Z,97507.91
2018-05-13T21:28:21.869Z,97496.46
2018-05-13T21:30:50.140Z,97496.91
2018-05-13T21:33:18.565Z,97498.08
2018-05-13T21:35:46.847Z,97497.87
2018-05-13T21:38:15.131Z,97498.66
2018-05-13T21:40:43.449Z,97503.00
2018-05-13T21:43:11.728Z,97497.13
2018-05-13T21:45:40.001Z,97499.98
2018-05-13T21:48:08.280Z,97499.61
2018-05-13T21:50:36.541Z,97497.62
2018-05-13T21:53:05.665Z,97486.28
2018-05-13T21:55:33.916Z,97491.77
2018-05-13T21:58:02.323Z,97492.29
2018-05-13T22:00:30.614Z,97483.53
2018-05-13T22:02:58.961Z,97487.57
2018-05-13T22:05:27.230Z,97486.66
2018-05-13T22:07:55.506Z,97483.52
2018-05-13T22:10:23.774Z,97485.87
2018-05-13T22:12:52.797Z,97478.61
2018-05-13T22:15:21.073Z,97480.91
2018-05-13T22:17:49.367Z,97477.11
2018-05-13T22:20:17.637Z,97478.74
2018-05-13T22:22:45.995Z,97471.50
2018-05-13T22:25:14.257Z,97466.41
2018-05-13T22:27:42.521Z,97470.01
2018-05-13T22:30:11.644Z,97468.50
2018-05-13T22:32:39.912Z,97464.80
2018-05-13T22:35:08.176Z,97462.15
2018-05-13T22:37:37.227Z,97454.33
2018-05-13T22:40:05.495Z,97453.41
2018-05-13T22:42:33.753Z,97448.22
2018-05-13T22:45:02.217Z,97448.45
2018-05-13T22:47:30.484Z,97439.37
2018-05-13T22:49:58.681Z,97437.62
2018-05-13T22:52:27.119Z,97433.69
2018-05-13T22:54:55.343Z,97431.69
2018-05-13T22:57:23.613Z,97434.58
2018-05-13T22:59:51.890Z,97439.08
2018-05-13T23:02:20.148Z,97433.17
2018-05-13T23:04:48.417Z,97424.30
2018-05-13T23:07:16.700Z,97421.05
2018-05-13T23:09:44.968Z,97416.18
2018-05-13T23:12:13.993Z,97414.89
2018-05-13T23:14:42.357Z,97412.18
2018-05-13T23:17:10.607Z,97412.50
2018-05-13T23:19:39.734Z,97408.05
2018-05-13T23:22:08.021Z,97403.92
2018-05-13T23:24:36.377Z,97403.89
2018-05-13T23:27:04.677Z,97402.02
2018-05-13T23:29:32.944Z,97398.34
2018-05-13T23:32:01.316Z,97400.51
2018-05-13T23:34:29.656Z,97403.64
2018-05-13T23:36:57.869Z,97401.37
2018-05-13T23:39:27.054Z,97397.22
2018-05-13T23:41:56.118Z,97391.58
2018-05-13T23:44:24.381Z,97391.28
2018-05-13T23:46:52.792Z,97393.73
2018-05-13T23:49:21.822Z,97390.73
2018-05-13T23:51:50.099Z,97392.19
2018-05-13T23:54:18.361Z,97391.83
2018-05-13T23:56:46.625Z,97391.45
2018-05-13T23:59:14.900Z,97388.67
